sensor_id;sensor_type;location;lat;lon;timestamp;P1;durP1;ratioP1;P2;durP2;ratioP2
18290;SDS011;9271;48.590;8.866;2023-04-06T00:02:25;8.03;;;7.23;;
18290;SDS011;9271;48.590;8.866;2023-04-06T00:04:53;7.97;;;7.07;;
18290;SDS011;9271;48.590;8.866;2023-04-06T00:07:20;7.70;;;6.93;;
18290;SDS011;9271;48.590;8.866;2023-04-06T00:09:46;8.30;;;6.93;;
18290;SDS011;9271;48.590;8.866;2023-04-06T00:12:13;8.07;;;7.07;;
18290;SDS011;9271;48.590;8.866;2023-04-06T00:14:40;7.30;;;6.50;;
18290;SDS011;9271;48.590;8.866;2023-04-06T00:17:06;8.10;;;6.90;;
18290;SDS011;9271;48.590;8.866;2023-04-06T00:19:33;8.37;;;7.00;;
18290;SDS011;9271;48.590;8.866;2023-04-06T00:22:01;8.53;;;6.60;;
18290;SDS011;9271;48.590;8.866;2023-04-06T00:24:28;7.67;;;6.87;;
18290;SDS011;9271;48.590;8.866;2023-04-06T00:26:54;7.47;;;6.77;;
18290;SDS011;9271;48.590;8.866;2023-04-06T00:29:21;8.83;;;7.47;;
18290;SDS011;9271;48.590;8.866;2023-04-06T00:31:48;7.87;;;6.93;;
18290;SDS011;9271;48.590;8.866;2023-04-06T00:34:14;7.63;;;6.63;;
18290;SDS011;9271;48.590;8.866;2023-04-06T00:36:41;7.10;;;6.40;;
18290;SDS011;9271;48.590;8.866;2023-04-06T00:39:09;6.87;;;6.10;;
18290;SDS011;9271;48.590;8.866;2023-04-06T00:41:36;7.80;;;6.47;;
18290;SDS011;9271;48.590;8.866;2023-04-06T00:44:03;6.97;;;6.20;;
18290;SDS011;9271;48.590;8.866;2023-04-06T00:46:29;8.47;;;6.70;;
18290;SDS011;9271;48.590;8.866;2023-04-06T00:48:56;7.17;;;6.23;;
18290;SDS011;9271;48.590;8.866;2023-04-06T00:51:23;8.03;;;6.23;;
18290;SDS011;9271;48.590;8.866;2023-04-06T00:53:50;6.57;;;5.97;;
18290;SDS011;9271;48.590;8.866;2023-04-06T00:56:18;6.30;;;5.70;;
18290;SDS011;9271;48.590;8.866;2023-04-06T00:58:44;7.00;;;5.70;;
18290;SDS011;9271;48.590;8.866;2023-04-06T01:01:11;6.50;;;5.90;;
18290;SDS011;9271;48.590;8.866;2023-04-06T01:03:38;6.80;;;6.10;;
18290;SDS011;9271;48.590;8.866;2023-04-06T01:06:07;6.83;;;6.23;;
18290;SDS011;9271;48.590;8.866;2023-04-06T01:08:33;6.90;;;6.20;;
18290;SDS011;9271;48.590;8.866;2023-04-06T01:11:00;6.87;;;6.20;;
18290;SDS011;9271;48.590;8.866;2023-04-06T01:13:28;7.03;;;6.17;;
18290;SDS011;9271;48.590;8.866;2023-04-06T01:15:55;6.67;;;5.90;;
18290;SDS011;9271;48.590;8.866;2023-04-06T01:18:25;7.30;;;5.97;;
18290;SDS011;9271;48.590;8.866;2023-04-06T01:20:52;7.23;;;6.00;;
18290;SDS011;9271;48.590;8.866;2023-04-06T01:23:20;7.37;;;5.87;;
18290;SDS011;9271;48.590;8.866;2023-04-06T01:25:47;7.20;;;6.50;;
18290;SDS011;9271;48.590;8.866;2023-04-06T01:28:14;7.10;;;6.40;;
18290;SDS011;9271;48.590;8.866;2023-04-06T01:30:40;6.80;;;6.13;;
18290;SDS011;9271;48.590;8.866;2023-04-06T01:33:07;6.93;;;6.00;;
18290;SDS011;9271;48.590;8.866;2023-04-06T01:35:34;7.03;;;6.23;;
18290;SDS011;9271;48.590;8.866;2023-04-06T01:38:01;7.80;;;6.77;;
18290;SDS011;9271;48.590;8.866;2023-04-06T01:40:29;7.50;;;6.30;;
18290;SDS011;9271;48.590;8.866;2023-04-06T01:42:56;7.10;;;6.40;;
18290;SDS011;9271;48.590;8.866;2023-04-06T01:45:22;7.37;;;6.17;;
18290;SDS011;9271;48.590;8.866;2023-04-06T01:47:49;7.60;;;6.37;;
18290;SDS011;9271;48.590;8.866;2023-04-06T01:50:16;7.30;;;6.43;;
18290;SDS011;9271;48.590;8.866;2023-04-06T01:52:43;8.93;;;7.17;;
18290;SDS011;9271;48.590;8.866;2023-04-06T01:55:09;7.63;;;6.70;;
18290;SDS011;9271;48.590;8.866;2023-04-06T01:57:37;7.20;;;6.50;;
18290;SDS011;9271;48.590;8.866;2023-04-06T02:00:04;7.57;;;6.80;;
18290;SDS011;9271;48.590;8.866;2023-04-06T02:02:32;8.30;;;7.00;;
18290;SDS011;9271;48.590;8.866;2023-04-06T02:04:59;8.60;;;6.70;;
18290;SDS011;9271;48.590;8.866;2023-04-06T02:07:25;7.30;;;6.40;;
18290;SDS011;9271;48.590;8.866;2023-04-06T02:09:53;8.63;;;6.90;;
18290;SDS011;9271;48.590;8.866;2023-04-06T02:12:20;8.13;;;6.53;;
18290;SDS011;9271;48.590;8.866;2023-04-06T02:14:50;8.20;;;6.50;;
18290;SDS011;9271;48.590;8.866;2023-04-06T02:17:16;6.87;;;6.17;;
18290;SDS011;9271;48.590;8.866;2023-04-06T02:19:43;6.83;;;5.83;;
18290;SDS011;9271;48.590;8.866;2023-04-06T02:22:10;6.53;;;5.90;;
18290;SDS011;9271;48.590;8.866;2023-04-06T02:24:37;6.80;;;6.10;;
18290;SDS011;9271;48.590;8.866;2023-04-06T02:27:04;6.73;;;6.13;;
18290;SDS011;9271;48.590;8.866;2023-04-06T02:29:30;6.47;;;5.80;;
18290;SDS011;9271;48.590;8.866;2023-04-06T02:31:58;6.23;;;5.60;;
18290;SDS011;9271;48.590;8.866;2023-04-06T02:34:25;6.23;;;5.63;;
18290;SDS011;9271;48.590;8.866;2023-04-06T02:36:52;6.60;;;6.00;;
18290;SDS011;9271;48.590;8.866;2023-04-06T02:39:18;7.73;;;5.83;;
18290;SDS011;9271;48.590;8.866;2023-04-06T02:41:45;6.20;;;5.60;;
18290;SDS011;9271;48.590;8.866;2023-04-06T02:44:12;6.20;;;5.57;;
18290;SDS011;9271;48.590;8.866;2023-04-06T02:46:39;7.37;;;6.30;;
18290;SDS011;9271;48.590;8.866;2023-04-06T02:49:07;6.87;;;6.20;;
18290;SDS011;9271;48.590;8.866;2023-04-06T02:51:34;6.67;;;5.97;;
18290;SDS011;9271;48.590;8.866;2023-04-06T02:54:00;7.10;;;6.17;;
18290;SDS011;9271;48.590;8.866;2023-04-06T02:56:27;7.67;;;6.60;;
18290;SDS011;9271;48.590;8.866;2023-04-06T02:58:53;8.93;;;7.90;;
18290;SDS011;9271;48.590;8.866;2023-04-06T03:01:20;8.70;;;7.63;;
18290;SDS011;9271;48.590;8.866;2023-04-06T03:03:47;7.67;;;6.97;;
18290;SDS011;9271;48.590;8.866;2023-04-06T03:06:15;9.40;;;6.97;;
18290;SDS011;9271;48.590;8.866;2023-04-06T03:08:41;7.60;;;6.80;;
18290;SDS011;9271;48.590;8.866;2023-04-06T03:11:08;9.37;;;7.47;;
18290;SDS011;9271;48.590;8.866;2023-04-06T03:13:35;7.83;;;7.03;;
18290;SDS011;9271;48.590;8.866;2023-04-06T03:16:03;7.90;;;7.07;;
18290;SDS011;9271;48.590;8.866;2023-04-06T03:18:31;7.93;;;7.13;;
18290;SDS011;9271;48.590;8.866;2023-04-06T03:20:58;9.70;;;7.70;;
18290;SDS011;9271;48.590;8.866;2023-04-06T03:23:26;8.47;;;7.60;;
18290;SDS011;9271;48.590;8.866;2023-04-06T03:25:53;8.30;;;7.50;;
18290;SDS011;9271;48.590;8.866;2023-04-06T03:28:19;8.73;;;7.17;;
18290;SDS011;9271;48.590;8.866;2023-04-06T03:30:46;9.10;;;7.03;;
18290;SDS011;9271;48.590;8.866;2023-04-06T03:33:13;8.60;;;7.17;;
18290;SDS011;9271;48.590;8.866;2023-04-06T03:35:40;7.63;;;6.93;;
18290;SDS011;9271;48.590;8.866;2023-04-06T03:38:06;7.30;;;6.57;;
18290;SDS011;9271;48.590;8.866;2023-04-06T03:40:34;7.27;;;6.57;;
18290;SDS011;9271;48.590;8.866;2023-04-06T03:43:01;7.83;;;7.03;;
18290;SDS011;9271;48.590;8.866;2023-04-06T03:45:28;7.33;;;6.60;;
18290;SDS011;9271;48.590;8.866;2023-04-06T03:47:54;7.40;;;6.70;;
18290;SDS011;9271;48.590;8.866;2023-04-06T03:50:21;9.13;;;6.90;;
18290;SDS011;9271;48.590;8.866;2023-04-06T03:52:48;9.83;;;7.10;;
18290;SDS011;9271;48.590;8.866;2023-04-06T03:55:14;7.87;;;6.90;;
18290;SDS011;9271;48.590;8.866;2023-04-06T03:57:43;9.73;;;7.70;;
18290;SDS011;9271;48.590;8.866;2023-04-06T04:00:10;8.00;;;7.13;;
18290;SDS011;9271;48.590;8.866;2023-04-06T04:02:37;7.23;;;6.47;;
18290;SDS011;9271;48.590;8.866;2023-04-06T04:05:05;7.80;;;7.00;;
18290;SDS011;9271;48.590;8.866;2023-04-06T04:07:32;8.80;;;7.60;;
18290;SDS011;9271;48.590;8.866;2023-04-06T04:09:58;7.73;;;7.03;;
18290;SDS011;9271;48.590;8.866;2023-04-06T04:12:25;9.37;;;7.33;;
18290;SDS011;9271;48.590;8.866;2023-04-06T04:14:53;9.37;;;7.60;;
18290;SDS011;9271;48.590;8.866;2023-04-06T04:17:21;8.50;;;7.30;;
18290;SDS011;9271;48.590;8.866;2023-04-06T04:19:47;7.90;;;6.83;;
18290;SDS011;9271;48.590;8.866;2023-04-06T04:22:14;8.67;;;6.90;;
18290;SDS011;9271;48.590;8.866;2023-04-06T04:24:40;8.97;;;7.40;;
18290;SDS011;9271;48.590;8.866;2023-04-06T04:27:07;8.30;;;7.50;;
18290;SDS011;9271;48.590;8.866;2023-04-06T04:29:34;10.20;;;7.30;;
18290;SDS011;9271;48.590;8.866;2023-04-06T04:32:02;7.43;;;6.73;;
18290;SDS011;9271;48.590;8.866;2023-04-06T04:34:29;9.27;;;7.40;;
18290;SDS011;9271;48.590;8.866;2023-04-06T04:36:56;8.50;;;7.37;;
18290;SDS011;9271;48.590;8.866;2023-04-06T04:39:23;8.17;;;7.27;;
18290;SDS011;9271;48.590;8.866;2023-04-06T04:41:50;10.23;;;7.40;;
18290;SDS011;9271;48.590;8.866;2023-04-06T04:44:16;8.83;;;7.30;;
18290;SDS011;9271;48.590;8.866;2023-04-06T04:46:43;8.47;;;7.57;;
18290;SDS011;9271;48.590;8.866;2023-04-06T04:49:11;9.40;;;7.60;;
18290;SDS011;9271;48.590;8.866;2023-04-06T04:51:38;11.83;;;7.50;;
18290;SDS011;9271;48.590;8.866;2023-04-06T04:54:05;8.57;;;7.70;;
18290;SDS011;9271;48.590;8.866;2023-04-06T04:56:32;8.60;;;7.53;;
18290;SDS011;9271;48.590;8.866;2023-04-06T04:58:58;9.00;;;8.00;;
18290;SDS011;9271;48.590;8.866;2023-04-06T05:01:25;9.63;;;7.60;;
18290;SDS011;9271;48.590;8.866;2023-04-06T05:04:07;8.17;;;7.03;;
18290;SDS011;9271;48.590;8.866;2023-04-06T05:07:14;8.77;;;7.50;;
18290;SDS011;9271;48.590;8.866;2023-04-06T05:10:10;9.03;;;7.97;;
18290;SDS011;9271;48.590;8.866;2023-04-06T05:13:05;9.67;;;8.37;;
18290;SDS011;9271;48.590;8.866;2023-04-06T05:15:32;10.03;;;8.50;;
18290;SDS011;9271;48.590;8.866;2023-04-06T05:17:59;11.13;;;9.03;;
18290;SDS011;9271;48.590;8.866;2023-04-06T05:20:26;10.70;;;8.40;;
18290;SDS011;9271;48.590;8.866;2023-04-06T05:22:55;9.37;;;8.40;;
18290;SDS011;9271;48.590;8.866;2023-04-06T05:25:22;8.90;;;7.97;;
18290;SDS011;9271;48.590;8.866;2023-04-06T05:27:49;8.93;;;8.00;;
18290;SDS011;9271;48.590;8.866;2023-04-06T05:30:32;8.70;;;7.70;;
18290;SDS011;9271;48.590;8.866;2023-04-06T05:33:25;12.07;;;8.37;;
18290;SDS011;9271;48.590;8.866;2023-04-06T05:35:55;10.03;;;7.97;;
18290;SDS011;9271;48.590;8.866;2023-04-06T05:38:42;10.03;;;7.70;;
18290;SDS011;9271;48.590;8.866;2023-04-06T05:41:17;13.67;;;9.67;;
18290;SDS011;9271;48.590;8.866;2023-04-06T05:43:48;9.37;;;8.37;;
18290;SDS011;9271;48.590;8.866;2023-04-06T05:46:14;8.43;;;7.57;;
18290;SDS011;9271;48.590;8.866;2023-04-06T05:48:41;9.23;;;7.93;;
18290;SDS011;9271;48.590;8.866;2023-04-06T05:51:08;9.70;;;8.23;;
18290;SDS011;9271;48.590;8.866;2023-04-06T05:53:36;9.77;;;8.20;;
18290;SDS011;9271;48.590;8.866;2023-04-06T05:56:04;10.33;;;7.30;;
18290;SDS011;9271;48.590;8.866;2023-04-06T05:58:31;8.00;;;7.20;;
18290;SDS011;9271;48.590;8.866;2023-04-06T06:00:58;10.13;;;7.83;;
18290;SDS011;9271;48.590;8.866;2023-04-06T06:03:25;9.43;;;7.50;;
18290;SDS011;9271;48.590;8.866;2023-04-06T06:05:52;7.90;;;7.10;;
18290;SDS011;9271;48.590;8.866;2023-04-06T06:08:18;11.03;;;7.83;;
18290;SDS011;9271;48.590;8.866;2023-04-06T06:10:46;12.70;;;7.10;;
18290;SDS011;9271;48.590;8.866;2023-04-06T06:13:13;13.93;;;7.57;;
18290;SDS011;9271;48.590;8.866;2023-04-06T06:15:40;8.23;;;7.23;;
18290;SDS011;9271;48.590;8.866;2023-04-06T06:18:06;8.00;;;7.07;;
18290;SDS011;9271;48.590;8.866;2023-04-06T06:20:34;9.00;;;7.23;;
18290;SDS011;9271;48.590;8.866;2023-04-06T06:23:01;8.87;;;7.67;;
18290;SDS011;9271;48.590;8.866;2023-04-06T06:25:28;7.67;;;6.83;;
18290;SDS011;9271;48.590;8.866;2023-04-06T06:27:58;8.07;;;7.10;;
18290;SDS011;9271;48.590;8.866;2023-04-06T06:30:25;7.67;;;6.97;;
18290;SDS011;9271;48.590;8.866;2023-04-06T06:32:51;8.67;;;7.00;;
18290;SDS011;9271;48.590;8.866;2023-04-06T06:35:18;8.17;;;7.03;;
18290;SDS011;9271;48.590;8.866;2023-04-06T06:37:45;7.53;;;6.80;;
18290;SDS011;9271;48.590;8.866;2023-04-06T06:40:12;8.07;;;7.10;;
18290;SDS011;9271;48.590;8.866;2023-04-06T06:42:41;7.13;;;6.43;;
18290;SDS011;9271;48.590;8.866;2023-04-06T06:45:09;7.33;;;6.30;;
18290;SDS011;9271;48.590;8.866;2023-04-06T06:47:36;7.63;;;6.43;;
18290;SDS011;9271;48.590;8.866;2023-04-06T06:50:03;10.03;;;6.30;;
18290;SDS011;9271;48.590;8.866;2023-04-06T06:52:31;7.63;;;6.93;;
18290;SDS011;9271;48.590;8.866;2023-04-06T06:54:58;6.93;;;6.17;;
18290;SDS011;9271;48.590;8.866;2023-04-06T06:57:25;8.53;;;6.80;;
18290;SDS011;9271;48.590;8.866;2023-04-06T06:59:52;7.47;;;6.67;;
18290;SDS011;9271;48.590;8.866;2023-04-06T07:02:20;8.60;;;6.57;;
18290;SDS011;9271;48.590;8.866;2023-04-06T07:04:47;9.33;;;6.60;;
18290;SDS011;9271;48.590;8.866;2023-04-06T07:07:14;7.10;;;6.50;;
18290;SDS011;9271;48.590;8.866;2023-04-06T07:09:41;7.60;;;6.80;;
18290;SDS011;9271;48.590;8.866;2023-04-06T07:12:08;7.60;;;6.77;;
18290;SDS011;9271;48.590;8.866;2023-04-06T07:14:35;11.03;;;6.70;;
18290;SDS011;9271;48.590;8.866;2023-04-06T07:17:02;7.17;;;6.43;;
18290;SDS011;9271;48.590;8.866;2023-04-06T07:19:30;8.40;;;6.60;;
18290;SDS011;9271;48.590;8.866;2023-04-06T07:21:57;7.87;;;6.73;;
18290;SDS011;9271;48.590;8.866;2023-04-06T07:24:24;6.47;;;5.87;;
18290;SDS011;9271;48.590;8.866;2023-04-06T07:26:51;7.47;;;6.20;;
18290;SDS011;9271;48.590;8.866;2023-04-06T07:29:18;6.63;;;6.03;;
18290;SDS011;9271;48.590;8.866;2023-04-06T07:31:44;6.43;;;5.80;;
18290;SDS011;9271;48.590;8.866;2023-04-06T07:34:11;9.07;;;6.30;;
18290;SDS011;9271;48.590;8.866;2023-04-06T07:36:39;8.30;;;5.87;;
18290;SDS011;9271;48.590;8.866;2023-04-06T07:39:06;8.47;;;6.10;;
18290;SDS011;9271;48.590;8.866;2023-04-06T07:41:33;7.63;;;6.00;;
18290;SDS011;9271;48.590;8.866;2023-04-06T07:44:00;9.20;;;6.03;;
18290;SDS011;9271;48.590;8.866;2023-04-06T07:46:27;7.03;;;6.10;;
18290;SDS011;9271;48.590;8.866;2023-04-06T07:48:53;6.97;;;6.20;;
18290;SDS011;9271;48.590;8.866;2023-04-06T07:51:20;7.60;;;6.33;;
18290;SDS011;9271;48.590;8.866;2023-04-06T07:53:49;9.50;;;6.17;;
18290;SDS011;9271;48.590;8.866;2023-04-06T07:56:17;8.03;;;5.90;;
18290;SDS011;9271;48.590;8.866;2023-04-06T07:58:43;6.90;;;6.20;;
18290;SDS011;9271;48.590;8.866;2023-04-06T08:01:10;6.90;;;6.20;;
18290;SDS011;9271;48.590;8.866;2023-04-06T08:03:37;8.33;;;6.40;;
18290;SDS011;9271;48.590;8.866;2023-04-06T08:06:04;7.00;;;6.30;;
18290;SDS011;9271;48.590;8.866;2023-04-06T08:08:31;7.63;;;5.90;;
18290;SDS011;9271;48.590;8.866;2023-04-06T08:10:59;7.57;;;5.80;;
18290;SDS011;9271;48.590;8.866;2023-04-06T08:13:27;7.20;;;6.07;;
18290;SDS011;9271;48.590;8.866;2023-04-06T08:15:54;6.67;;;6.07;;
18290;SDS011;9271;48.590;8.866;2023-04-06T08:18:21;7.67;;;6.20;;
18290;SDS011;9271;48.590;8.866;2023-04-06T08:20:48;7.07;;;6.40;;
18290;SDS011;9271;48.590;8.866;2023-04-06T08:23:15;6.90;;;6.27;;
18290;SDS011;9271;48.590;8.866;2023-04-06T08:25:41;8.13;;;6.57;;
18290;SDS011;9271;48.590;8.866;2023-04-06T08:28:10;7.50;;;6.77;;
18290;SDS011;9271;48.590;8.866;2023-04-06T08:30:39;7.87;;;6.50;;
18290;SDS011;9271;48.590;8.866;2023-04-06T08:33:05;10.63;;;7.50;;
18290;SDS011;9271;48.590;8.866;2023-04-06T08:35:32;7.57;;;6.80;;
18290;SDS011;9271;48.590;8.866;2023-04-06T08:37:59;7.83;;;7.10;;
18290;SDS011;9271;48.590;8.866;2023-04-06T08:40:26;7.87;;;7.00;;
18290;SDS011;9271;48.590;8.866;2023-04-06T08:42:54;7.30;;;6.60;;
18290;SDS011;9271;48.590;8.866;2023-04-06T08:45:23;8.43;;;7.17;;
18290;SDS011;9271;48.590;8.866;2023-04-06T08:47:50;9.20;;;7.17;;
18290;SDS011;9271;48.590;8.866;2023-04-06T08:50:18;8.90;;;7.67;;
18290;SDS011;9271;48.590;8.866;2023-04-06T08:52:46;8.63;;;7.40;;
18290;SDS011;9271;48.590;8.866;2023-04-06T08:55:14;7.60;;;6.97;;
18290;SDS011;9271;48.590;8.866;2023-04-06T08:57:41;9.60;;;7.50;;
18290;SDS011;9271;48.590;8.866;2023-04-06T09:00:09;7.90;;;7.10;;
18290;SDS011;9271;48.590;8.866;2023-04-06T09:02:40;7.20;;;6.50;;
18290;SDS011;9271;48.590;8.866;2023-04-06T09:05:09;9.83;;;7.40;;
18290;SDS011;9271;48.590;8.866;2023-04-06T09:07:36;8.57;;;7.63;;
18290;SDS011;9271;48.590;8.866;2023-04-06T09:10:03;8.03;;;7.33;;
18290;SDS011;9271;48.590;8.866;2023-04-06T09:12:31;9.13;;;8.30;;
18290;SDS011;9271;48.590;8.866;2023-04-06T09:14:59;7.97;;;7.17;;
18290;SDS011;9271;48.590;8.866;2023-04-06T09:17:27;11.80;;;7.70;;
18290;SDS011;9271;48.590;8.866;2023-04-06T09:19:58;9.03;;;7.90;;
18290;SDS011;9271;48.590;8.866;2023-04-06T09:22:25;8.30;;;7.50;;
18290;SDS011;9271;48.590;8.866;2023-04-06T09:25:01;9.13;;;8.23;;
18290;SDS011;9271;48.590;8.866;2023-04-06T09:27:31;8.40;;;7.47;;
18290;SDS011;9271;48.590;8.866;2023-04-06T09:30:03;10.53;;;8.23;;
18290;SDS011;9271;48.590;8.866;2023-04-06T09:32:31;9.23;;;7.97;;
18290;SDS011;9271;48.590;8.866;2023-04-06T09:35:06;9.07;;;8.27;;
18290;SDS011;9271;48.590;8.866;2023-04-06T09:37:33;7.73;;;6.97;;
18290;SDS011;9271;48.590;8.866;2023-04-06T09:40:04;9.07;;;8.27;;
18290;SDS011;9271;48.590;8.866;2023-04-06T09:42:32;8.82;;;8.10;;
18290;SDS011;9271;48.590;8.866;2023-04-06T09:44:59;9.00;;;8.13;;
18290;SDS011;9271;48.590;8.866;2023-04-06T09:47:25;8.83;;;8.07;;
18290;SDS011;9271;48.590;8.866;2023-04-06T09:49:54;9.32;;;8.38;;
18290;SDS011;9271;48.590;8.866;2023-04-06T09:52:25;9.93;;;8.93;;
18290;SDS011;9271;48.590;8.866;2023-04-06T09:54:58;9.63;;;8.57;;
18290;SDS011;9271;48.590;8.866;2023-04-06T09:57:28;9.75;;;8.80;;
18290;SDS011;9271;48.590;8.866;2023-04-06T10:00:02;8.38;;;7.63;;
18290;SDS011;9271;48.590;8.866;2023-04-06T10:02:35;11.65;;;8.40;;
18290;SDS011;9271;48.590;8.866;2023-04-06T10:05:08;7.40;;;6.80;;
18290;SDS011;9271;48.590;8.866;2023-04-06T10:07:40;5.95;;;5.45;;
18290;SDS011;9271;48.590;8.866;2023-04-06T10:10:08;6.90;;;6.20;;
18290;SDS011;9271;48.590;8.866;2023-04-06T10:12:37;7.60;;;6.90;;
18290;SDS011;9271;48.590;8.866;2023-04-06T10:15:05;7.25;;;6.55;;
18290;SDS011;9271;48.590;8.866;2023-04-06T10:17:33;7.85;;;6.93;;
18290;SDS011;9271;48.590;8.866;2023-04-06T10:20:02;7.78;;;7.07;;
18290;SDS011;9271;48.590;8.866;2023-04-06T10:22:35;7.80;;;7.10;;
18290;SDS011;9271;48.590;8.866;2023-04-06T10:25:06;8.15;;;7.45;;
18290;SDS011;9271;48.590;8.866;2023-04-06T10:27:34;7.40;;;6.70;;
18290;SDS011;9271;48.590;8.866;2023-04-06T10:30:01;6.40;;;5.80;;
18290;SDS011;9271;48.590;8.866;2023-04-06T10:32:33;9.17;;;6.30;;
18290;SDS011;9271;48.590;8.866;2023-04-06T10:35:07;6.45;;;5.70;;
18290;SDS011;9271;48.590;8.866;2023-04-06T10:37:49;6.85;;;5.95;;
18290;SDS011;9271;48.590;8.866;2023-04-06T10:40:24;7.53;;;6.78;;
18290;SDS011;9271;48.590;8.866;2023-04-06T10:42:52;8.13;;;7.32;;
18290;SDS011;9271;48.590;8.866;2023-04-06T10:45:20;7.68;;;6.97;;
18290;SDS011;9271;48.590;8.866;2023-04-06T10:47:47;7.63;;;6.57;;
18290;SDS011;9271;48.590;8.866;2023-04-06T10:50:14;7.70;;;6.90;;
18290;SDS011;9271;48.590;8.866;2023-04-06T10:52:42;6.70;;;6.00;;
18290;SDS011;9271;48.590;8.866;2023-04-06T10:55:10;5.85;;;5.38;;
18290;SDS011;9271;48.590;8.866;2023-04-06T10:57:41;4.78;;;4.38;;
18290;SDS011;9271;48.590;8.866;2023-04-06T11:00:08;4.80;;;4.30;;
18290;SDS011;9271;48.590;8.866;2023-04-06T11:02:37;6.47;;;5.25;;
18290;SDS011;9271;48.590;8.866;2023-04-06T11:05:04;6.32;;;5.82;;
18290;SDS011;9271;48.590;8.866;2023-04-06T11:07:32;5.75;;;5.18;;
18290;SDS011;9271;48.590;8.866;2023-04-06T11:09:59;6.03;;;5.43;;
18290;SDS011;9271;48.590;8.866;2023-04-06T11:12:26;6.50;;;5.90;;
18290;SDS011;9271;48.590;8.866;2023-04-06T11:14:57;6.85;;;5.70;;
18290;SDS011;9271;48.590;8.866;2023-04-06T11:17:29;6.90;;;6.15;;
18290;SDS011;9271;48.590;8.866;2023-04-06T11:19:56;5.63;;;5.10;;
18290;SDS011;9271;48.590;8.866;2023-04-06T11:22:24;6.47;;;5.97;;
18290;SDS011;9271;48.590;8.866;2023-04-06T11:24:51;5.97;;;5.47;;
18290;SDS011;9271;48.590;8.866;2023-04-06T11:27:18;7.32;;;5.72;;
18290;SDS011;9271;48.590;8.866;2023-04-06T11:29:45;6.45;;;5.70;;
18290;SDS011;9271;48.590;8.866;2023-04-06T11:32:19;6.53;;;6.00;;
18290;SDS011;9271;48.590;8.866;2023-04-06T11:34:46;6.63;;;5.83;;
18290;SDS011;9271;48.590;8.866;2023-04-06T11:37:13;6.07;;;5.57;;
18290;SDS011;9271;48.590;8.866;2023-04-06T11:39:43;6.35;;;5.85;;
18290;SDS011;9271;48.590;8.866;2023-04-06T11:42:20;6.55;;;5.90;;
18290;SDS011;9271;48.590;8.866;2023-04-06T11:44:49;5.30;;;4.88;;
18290;SDS011;9271;48.590;8.866;2023-04-06T11:47:19;7.80;;;5.90;;
18290;SDS011;9271;48.590;8.866;2023-04-06T11:49:47;5.03;;;4.50;;
18290;SDS011;9271;48.590;8.866;2023-04-06T11:52:15;4.43;;;4.10;;
18290;SDS011;9271;48.590;8.866;2023-04-06T11:54:43;4.00;;;3.70;;
18290;SDS011;9271;48.590;8.866;2023-04-06T11:57:10;3.83;;;3.55;;
18290;SDS011;9271;48.590;8.866;2023-04-06T11:59:36;4.60;;;4.20;;
18290;SDS011;9271;48.590;8.866;2023-04-06T12:02:03;4.70;;;4.40;;
18290;SDS011;9271;48.590;8.866;2023-04-06T12:04:32;6.55;;;5.95;;
18290;SDS011;9271;48.590;8.866;2023-04-06T12:07:00;7.45;;;6.00;;
18290;SDS011;9271;48.590;8.866;2023-04-06T12:09:27;6.35;;;5.78;;
18290;SDS011;9271;48.590;8.866;2023-04-06T12:11:53;6.45;;;5.85;;
18290;SDS011;9271;48.590;8.866;2023-04-06T12:14:20;6.20;;;5.47;;
18290;SDS011;9271;48.590;8.866;2023-04-06T12:16:47;7.55;;;5.40;;
18290;SDS011;9271;48.590;8.866;2023-04-06T12:19:14;6.38;;;5.57;;
18290;SDS011;9271;48.590;8.866;2023-04-06T12:21:42;5.82;;;5.32;;
18290;SDS011;9271;48.590;8.866;2023-04-06T12:24:09;6.10;;;5.60;;
18290;SDS011;9271;48.590;8.866;2023-04-06T12:26:36;6.13;;;5.63;;
18290;SDS011;9271;48.590;8.866;2023-04-06T12:29:03;5.60;;;5.15;;
18290;SDS011;9271;48.590;8.866;2023-04-06T12:31:32;5.30;;;4.90;;
18290;SDS011;9271;48.590;8.866;2023-04-06T12:33:59;5.57;;;5.07;;
18290;SDS011;9271;48.590;8.866;2023-04-06T12:36:26;6.95;;;5.28;;
18290;SDS011;9271;48.590;8.866;2023-04-06T12:38:55;5.78;;;5.28;;
18290;SDS011;9271;48.590;8.866;2023-04-06T12:41:22;5.90;;;5.40;;
18290;SDS011;9271;48.590;8.866;2023-04-06T12:43:49;5.82;;;5.30;;
18290;SDS011;9271;48.590;8.866;2023-04-06T12:46:16;6.18;;;5.68;;
18290;SDS011;9271;48.590;8.866;2023-04-06T12:48:43;5.88;;;5.28;;
18290;SDS011;9271;48.590;8.866;2023-04-06T12:51:09;6.00;;;5.50;;
18290;SDS011;9271;48.590;8.866;2023-04-06T12:53:36;5.72;;;5.07;;
18290;SDS011;9271;48.590;8.866;2023-04-06T12:56:10;5.65;;;5.15;;
18290;SDS011;9271;48.590;8.866;2023-04-06T12:58:38;6.43;;;5.30;;
18290;SDS011;9271;48.590;8.866;2023-04-06T13:01:06;6.20;;;5.32;;
18290;SDS011;9271;48.590;8.866;2023-04-06T13:03:33;8.40;;;6.03;;
18290;SDS011;9271;48.590;8.866;2023-04-06T13:06:01;6.83;;;6.00;;
18290;SDS011;9271;48.590;8.866;2023-04-06T13:08:28;6.37;;;5.77;;
18290;SDS011;9271;48.590;8.866;2023-04-06T13:10:55;6.13;;;5.00;;
18290;SDS011;9271;48.590;8.866;2023-04-06T13:13:24;6.07;;;5.47;;
18290;SDS011;9271;48.590;8.866;2023-04-06T13:15:51;6.83;;;5.67;;
18290;SDS011;9271;48.590;8.866;2023-04-06T13:18:20;6.10;;;5.50;;
18290;SDS011;9271;48.590;8.866;2023-04-06T13:20:47;5.90;;;5.30;;
18290;SDS011;9271;48.590;8.866;2023-04-06T13:23:14;6.03;;;5.37;;
18290;SDS011;9271;48.590;8.866;2023-04-06T13:25:42;6.20;;;5.60;;
18290;SDS011;9271;48.590;8.866;2023-04-06T13:28:08;6.70;;;5.60;;
18290;SDS011;9271;48.590;8.866;2023-04-06T13:30:37;6.50;;;5.80;;
18290;SDS011;9271;48.590;8.866;2023-04-06T13:33:04;5.53;;;4.90;;
18290;SDS011;9271;48.590;8.866;2023-04-06T13:35:31;5.97;;;5.47;;
18290;SDS011;9271;48.590;8.866;2023-04-06T13:37:58;6.63;;;5.57;;
18290;SDS011;9271;48.590;8.866;2023-04-06T13:40:25;6.23;;;5.73;;
18290;SDS011;9271;48.590;8.866;2023-04-06T13:42:51;6.13;;;5.57;;
18290;SDS011;9271;48.590;8.866;2023-04-06T13:45:18;6.00;;;5.50;;
18290;SDS011;9271;48.590;8.866;2023-04-06T13:47:46;7.20;;;5.50;;
18290;SDS011;9271;48.590;8.866;2023-04-06T13:50:13;6.13;;;5.53;;
18290;SDS011;9271;48.590;8.866;2023-04-06T13:52:40;5.97;;;5.40;;
18290;SDS011;9271;48.590;8.866;2023-04-06T13:55:07;5.90;;;5.40;;
18290;SDS011;9271;48.590;8.866;2023-04-06T13:57:34;7.93;;;5.50;;
18290;SDS011;9271;48.590;8.866;2023-04-06T14:00:01;6.10;;;5.37;;
18290;SDS011;9271;48.590;8.866;2023-04-06T14:02:27;5.60;;;5.10;;
18290;SDS011;9271;48.590;8.866;2023-04-06T14:04:55;6.00;;;5.40;;
18290;SDS011;9271;48.590;8.866;2023-04-06T14:07:22;6.13;;;5.50;;
18290;SDS011;9271;48.590;8.866;2023-04-06T14:09:49;6.07;;;5.50;;
18290;SDS011;9271;48.590;8.866;2023-04-06T14:12:16;5.87;;;5.27;;
18290;SDS011;9271;48.590;8.866;2023-04-06T14:14:43;6.33;;;5.50;;
18290;SDS011;9271;48.590;8.866;2023-04-06T14:17:09;6.10;;;5.53;;
18290;SDS011;9271;48.590;8.866;2023-04-06T14:19:36;5.73;;;5.20;;
18290;SDS011;9271;48.590;8.866;2023-04-06T14:22:04;5.97;;;5.37;;
18290;SDS011;9271;48.590;8.866;2023-04-06T14:24:31;5.53;;;4.97;;
18290;SDS011;9271;48.590;8.866;2023-04-06T14:26:57;5.50;;;5.00;;
18290;SDS011;9271;48.590;8.866;2023-04-06T14:29:26;6.83;;;5.57;;
18290;SDS011;9271;48.590;8.866;2023-04-06T14:31:52;5.67;;;5.10;;
18290;SDS011;9271;48.590;8.866;2023-04-06T14:34:24;6.13;;;5.07;;
18290;SDS011;9271;48.590;8.866;2023-04-06T14:36:51;7.10;;;6.13;;
18290;SDS011;9271;48.590;8.866;2023-04-06T14:39:19;6.10;;;5.50;;
18290;SDS011;9271;48.590;8.866;2023-04-06T14:41:46;7.77;;;5.37;;
18290;SDS011;9271;48.590;8.866;2023-04-06T14:44:13;8.17;;;5.40;;
18290;SDS011;9271;48.590;8.866;2023-04-06T14:46:40;7.30;;;5.23;;
18290;SDS011;9271;48.590;8.866;2023-04-06T14:49:07;7.93;;;5.63;;
18290;SDS011;9271;48.590;8.866;2023-04-06T14:51:33;6.97;;;5.77;;
18290;SDS011;9271;48.590;8.866;2023-04-06T14:54:01;5.53;;;4.67;;
18290;SDS011;9271;48.590;8.866;2023-04-06T14:56:30;5.27;;;4.77;;
18290;SDS011;9271;48.590;8.866;2023-04-06T14:58:57;5.43;;;4.87;;
18290;SDS011;9271;48.590;8.866;2023-04-06T15:01:24;6.80;;;5.07;;
18290;SDS011;9271;48.590;8.866;2023-04-06T15:03:51;5.20;;;4.67;;
18290;SDS011;9271;48.590;8.866;2023-04-06T15:06:18;5.57;;;4.60;;